METAR AND TAF INFORMATION
METAR FOR ENHD
ADDS - METARS form results

(0658 UTC 17 October 2021)
Data provider http://aviationweather.gov/metar/data/
 
METAR text: ENHD 170650Z 11006KT 9999 BKN037 04/03 Q1014
Conditions at: ENHD (HAUGESUND/KARMOY, NO) observed 0650 UTC 17 October 2021
Temperature: 4.0°C (39°F)
Dewpoint: 3.0°C (37°F) [RH = 93%]
Pressure (altimeter): 29.94 inches Hg (1014.0 mb)
Winds: from the ESE (110 degrees) at 7 MPH (6 knots; 3.1 m/s)
Visibility: 6 or more miles (10+ km)
Ceiling: 3700 feet AGL
Clouds: broken clouds at 3700 feet AGL
Weather: no significant weather observed at this time

METAR text: ENHD 170620Z 11005KT 9999 FEW042 03/01 Q1014
Conditions at: ENHD (HAUGESUND/KARMOY, NO) observed 0620 UTC 17 October 2021
Temperature: 3.0°C (37°F)
Dewpoint: 1.0°C (34°F) [RH = 87%]
Pressure (altimeter): 29.94 inches Hg (1014.0 mb)
Winds: from the ESE (110 degrees) at 6 MPH (5 knots; 2.6 m/s)
Visibility: 6 or more miles (10+ km)
Ceiling: at least 12,000 feet AGL
Clouds: few clouds at 4200 feet AGL
Weather: no significant weather observed at this time

Forecast for: ENHD (HAUGESUND/KARMOY, NO)
Text: TAF ENHD 170500Z 1706/1715 09005KT 9999 FEW050
Forecast period: 0600 to 1200 UTC 17 October 2021
Forecast type: FROM: standard forecast or significant change
Winds: from the E (90 degrees) at 6 MPH (5 knots; 2.6 m/s)
Visibility: 6 or more miles (10+ km)
Ceiling: at least 12,000 feet AGL
Clouds: few clouds at 5000 feet AGL
Weather: no significant weather forecast for this period
Text: BECMG 1712/1714 36010KT
Forecast period: 1200 to 1500 UTC 17 October 2021
Forecast type: BECOMING: Conditions expected to become as follows by 1400 UTC 17 October 2021
Winds: from the N (360 degrees) at 12 MPH (10 knots; 5.1 m/s)
Visibility: 6 or more miles (10+ km)
Ceiling: at least 12,000 feet AGL
Clouds: few clouds at 5000 feet AGL
Weather: no significant weather forecast for this period

 AIRPORT MAP

 RUNWAY INFORMATION
Runway 14 Runway length 6957 ft Runway width 148 ft
Runway elevation 61 ft Runway displaced threshold 197 ft Runway heading 134
Runway 32 Runway length 6957 ft Runway width 148 ft
Runway elevation 86 ft Runway displaced threshold 197 ft Runway heading 314

 AIRPORT FREQUENCIES
Type ATIS Name ATIS Frequency 118.175 MHZ
Type TWR Name TWR Frequency 120.5 MHZ

 AIRPORT NEAR NAVIGATION AIDS
Type VOR-DME Name Karmoy Frequency 115150 KHZ





Powered by Virtual Airlines Manager

Maps by Rafael Santos